sensor_id;sensor_type;location;lat;lon;timestamp;P1;durP1;ratioP1;P2;durP2;ratioP2
2872;SDS011;1444;49.166;7.312;2023-05-21T00:01:37;26.47;;;19.10;;
2872;SDS011;1444;49.166;7.312;2023-05-21T00:04:04;30.60;;;19.47;;
2872;SDS011;1444;49.166;7.312;2023-05-21T00:06:31;28.60;;;19.97;;
2872;SDS011;1444;49.166;7.312;2023-05-21T00:08:59;29.07;;;20.70;;
2872;SDS011;1444;49.166;7.312;2023-05-21T00:11:27;23.20;;;18.17;;
2872;SDS011;1444;49.166;7.312;2023-05-21T00:13:54;22.27;;;18.27;;
2872;SDS011;1444;49.166;7.312;2023-05-21T00:16:23;25.07;;;18.37;;
2872;SDS011;1444;49.166;7.312;2023-05-21T00:18:50;23.77;;;19.57;;
2872;SDS011;1444;49.166;7.312;2023-05-21T00:21:18;26.50;;;19.43;;
2872;SDS011;1444;49.166;7.312;2023-05-21T00:23:47;23.77;;;17.87;;
2872;SDS011;1444;49.166;7.312;2023-05-21T00:26:13;25.40;;;19.63;;
2872;SDS011;1444;49.166;7.312;2023-05-21T00:28:40;25.50;;;19.50;;
2872;SDS011;1444;49.166;7.312;2023-05-21T00:31:07;26.60;;;19.30;;
2872;SDS011;1444;49.166;7.312;2023-05-21T00:33:35;26.67;;;19.93;;
2872;SDS011;1444;49.166;7.312;2023-05-21T00:36:02;23.00;;;18.87;;
2872;SDS011;1444;49.166;7.312;2023-05-21T00:38:30;27.27;;;21.33;;
2872;SDS011;1444;49.166;7.312;2023-05-21T00:40:58;28.00;;;21.63;;
2872;SDS011;1444;49.166;7.312;2023-05-21T00:43:26;26.97;;;21.67;;
2872;SDS011;1444;49.166;7.312;2023-05-21T00:45:53;27.90;;;20.33;;
2872;SDS011;1444;49.166;7.312;2023-05-21T00:48:22;26.43;;;20.17;;
2872;SDS011;1444;49.166;7.312;2023-05-21T00:50:50;28.60;;;21.20;;
2872;SDS011;1444;49.166;7.312;2023-05-21T00:53:17;30.67;;;21.90;;
2872;SDS011;1444;49.166;7.312;2023-05-21T00:55:44;26.97;;;21.07;;
2872;SDS011;1444;49.166;7.312;2023-05-21T00:58:13;29.10;;;19.90;;
2872;SDS011;1444;49.166;7.312;2023-05-21T01:00:41;25.10;;;20.33;;
2872;SDS011;1444;49.166;7.312;2023-05-21T01:03:08;29.83;;;19.63;;
2872;SDS011;1444;49.166;7.312;2023-05-21T01:05:36;24.47;;;19.40;;
2872;SDS011;1444;49.166;7.312;2023-05-21T01:08:05;28.70;;;21.93;;
2872;SDS011;1444;49.166;7.312;2023-05-21T01:10:34;27.43;;;20.90;;
2872;SDS011;1444;49.166;7.312;2023-05-21T01:13:01;28.83;;;20.87;;
2872;SDS011;1444;49.166;7.312;2023-05-21T01:15:28;26.37;;;20.63;;
2872;SDS011;1444;49.166;7.312;2023-05-21T01:17:55;32.33;;;22.73;;
2872;SDS011;1444;49.166;7.312;2023-05-21T01:20:22;99.43;;;24.53;;
2872;SDS011;1444;49.166;7.312;2023-05-21T01:22:52;27.00;;;21.70;;
2872;SDS011;1444;49.166;7.312;2023-05-21T01:25:19;29.47;;;20.90;;
2872;SDS011;1444;49.166;7.312;2023-05-21T01:27:47;28.37;;;20.90;;
2872;SDS011;1444;49.166;7.312;2023-05-21T01:30:14;27.47;;;21.70;;
2872;SDS011;1444;49.166;7.312;2023-05-21T01:32:44;27.13;;;21.10;;
2872;SDS011;1444;49.166;7.312;2023-05-21T01:35:16;33.13;;;21.30;;
2872;SDS011;1444;49.166;7.312;2023-05-21T01:37:48;34.43;;;23.50;;
2872;SDS011;1444;49.166;7.312;2023-05-21T01:40:21;38.13;;;22.43;;
2872;SDS011;1444;49.166;7.312;2023-05-21T01:42:53;29.93;;;21.97;;
2872;SDS011;1444;49.166;7.312;2023-05-21T01:45:21;34.73;;;23.10;;
2872;SDS011;1444;49.166;7.312;2023-05-21T01:47:50;29.40;;;21.27;;
2872;SDS011;1444;49.166;7.312;2023-05-21T01:50:21;34.40;;;21.63;;
2872;SDS011;1444;49.166;7.312;2023-05-21T01:52:54;31.33;;;22.27;;
2872;SDS011;1444;49.166;7.312;2023-05-21T01:55:24;29.07;;;22.20;;
2872;SDS011;1444;49.166;7.312;2023-05-21T01:57:52;30.57;;;23.10;;
2872;SDS011;1444;49.166;7.312;2023-05-21T02:00:20;33.67;;;22.70;;
2872;SDS011;1444;49.166;7.312;2023-05-21T02:02:48;28.90;;;22.00;;
2872;SDS011;1444;49.166;7.312;2023-05-21T02:05:16;29.77;;;21.77;;
2872;SDS011;1444;49.166;7.312;2023-05-21T02:07:43;32.47;;;23.90;;
2872;SDS011;1444;49.166;7.312;2023-05-21T02:10:11;32.47;;;22.23;;
2872;SDS011;1444;49.166;7.312;2023-05-21T02:12:40;30.63;;;23.50;;
2872;SDS011;1444;49.166;7.312;2023-05-21T02:15:07;36.20;;;23.10;;
2872;SDS011;1444;49.166;7.312;2023-05-21T02:17:34;31.10;;;22.77;;
2872;SDS011;1444;49.166;7.312;2023-05-21T02:20:02;29.57;;;21.60;;
2872;SDS011;1444;49.166;7.312;2023-05-21T02:22:35;34.90;;;23.10;;
2872;SDS011;1444;49.166;7.312;2023-05-21T02:25:03;33.20;;;22.67;;
2872;SDS011;1444;49.166;7.312;2023-05-21T02:27:31;30.00;;;23.07;;
2872;SDS011;1444;49.166;7.312;2023-05-21T02:30:00;30.20;;;22.93;;
2872;SDS011;1444;49.166;7.312;2023-05-21T02:32:27;29.57;;;21.10;;
2872;SDS011;1444;49.166;7.312;2023-05-21T02:34:55;30.20;;;23.83;;
2872;SDS011;1444;49.166;7.312;2023-05-21T02:37:23;28.67;;;21.40;;
2872;SDS011;1444;49.166;7.312;2023-05-21T02:39:51;32.43;;;24.87;;
2872;SDS011;1444;49.166;7.312;2023-05-21T02:42:18;28.60;;;22.60;;
2872;SDS011;1444;49.166;7.312;2023-05-21T02:44:45;34.17;;;24.13;;
2872;SDS011;1444;49.166;7.312;2023-05-21T02:47:13;33.80;;;21.87;;
2872;SDS011;1444;49.166;7.312;2023-05-21T02:49:40;31.60;;;23.53;;
2872;SDS011;1444;49.166;7.312;2023-05-21T02:52:07;30.60;;;22.20;;
2872;SDS011;1444;49.166;7.312;2023-05-21T02:54:34;32.23;;;24.53;;
2872;SDS011;1444;49.166;7.312;2023-05-21T02:57:01;33.07;;;24.20;;
2872;SDS011;1444;49.166;7.312;2023-05-21T02:59:27;35.40;;;22.67;;
2872;SDS011;1444;49.166;7.312;2023-05-21T03:01:54;31.87;;;23.67;;
2872;SDS011;1444;49.166;7.312;2023-05-21T03:04:22;30.43;;;23.17;;
2872;SDS011;1444;49.166;7.312;2023-05-21T03:06:52;38.07;;;23.87;;
2872;SDS011;1444;49.166;7.312;2023-05-21T03:09:19;33.57;;;23.73;;
2872;SDS011;1444;49.166;7.312;2023-05-21T03:11:46;33.23;;;22.80;;
2872;SDS011;1444;49.166;7.312;2023-05-21T03:14:13;34.43;;;23.33;;
2872;SDS011;1444;49.166;7.312;2023-05-21T03:16:40;31.63;;;22.87;;
2872;SDS011;1444;49.166;7.312;2023-05-21T03:19:08;33.33;;;23.80;;
2872;SDS011;1444;49.166;7.312;2023-05-21T03:21:36;33.93;;;23.30;;
2872;SDS011;1444;49.166;7.312;2023-05-21T03:24:03;29.87;;;23.87;;
2872;SDS011;1444;49.166;7.312;2023-05-21T03:26:31;29.40;;;22.53;;
2872;SDS011;1444;49.166;7.312;2023-05-21T03:28:58;32.70;;;23.47;;
2872;SDS011;1444;49.166;7.312;2023-05-21T03:31:25;34.20;;;23.10;;
2872;SDS011;1444;49.166;7.312;2023-05-21T03:33:52;39.63;;;23.47;;
2872;SDS011;1444;49.166;7.312;2023-05-21T03:36:19;37.03;;;24.07;;
2872;SDS011;1444;49.166;7.312;2023-05-21T03:38:47;34.20;;;23.47;;
2872;SDS011;1444;49.166;7.312;2023-05-21T03:41:14;35.63;;;22.57;;
2872;SDS011;1444;49.166;7.312;2023-05-21T03:43:41;36.47;;;22.47;;
2872;SDS011;1444;49.166;7.312;2023-05-21T03:46:08;34.00;;;22.70;;
2872;SDS011;1444;49.166;7.312;2023-05-21T03:48:35;28.80;;;22.63;;
2872;SDS011;1444;49.166;7.312;2023-05-21T03:51:01;32.87;;;23.60;;
2872;SDS011;1444;49.166;7.312;2023-05-21T03:53:28;27.13;;;20.70;;
2872;SDS011;1444;49.166;7.312;2023-05-21T03:55:56;34.00;;;23.70;;
2872;SDS011;1444;49.166;7.312;2023-05-21T03:58:23;41.90;;;22.87;;
2872;SDS011;1444;49.166;7.312;2023-05-21T04:00:50;31.80;;;22.57;;
2872;SDS011;1444;49.166;7.312;2023-05-21T04:03:17;31.87;;;23.10;;
2872;SDS011;1444;49.166;7.312;2023-05-21T04:05:44;34.40;;;21.93;;
2872;SDS011;1444;49.166;7.312;2023-05-21T04:08:13;41.37;;;23.63;;
2872;SDS011;1444;49.166;7.312;2023-05-21T04:10:40;36.37;;;23.50;;
2872;SDS011;1444;49.166;7.312;2023-05-21T04:13:08;35.40;;;23.00;;
2872;SDS011;1444;49.166;7.312;2023-05-21T04:15:35;33.37;;;24.50;;
2872;SDS011;1444;49.166;7.312;2023-05-21T04:18:02;37.20;;;24.93;;
2872;SDS011;1444;49.166;7.312;2023-05-21T04:20:31;35.10;;;22.33;;
2872;SDS011;1444;49.166;7.312;2023-05-21T04:22:57;34.80;;;24.60;;
2872;SDS011;1444;49.166;7.312;2023-05-21T04:25:25;34.90;;;22.80;;
2872;SDS011;1444;49.166;7.312;2023-05-21T04:27:52;35.70;;;23.67;;
2872;SDS011;1444;49.166;7.312;2023-05-21T04:30:20;32.57;;;21.77;;
2872;SDS011;1444;49.166;7.312;2023-05-21T04:32:48;32.10;;;23.50;;
2872;SDS011;1444;49.166;7.312;2023-05-21T04:35:16;31.53;;;23.13;;
2872;SDS011;1444;49.166;7.312;2023-05-21T04:37:43;35.73;;;23.87;;
2872;SDS011;1444;49.166;7.312;2023-05-21T04:40:11;37.50;;;23.67;;
2872;SDS011;1444;49.166;7.312;2023-05-21T04:42:42;33.27;;;23.17;;
2872;SDS011;1444;49.166;7.312;2023-05-21T04:45:09;29.30;;;22.13;;
2872;SDS011;1444;49.166;7.312;2023-05-21T04:47:37;31.27;;;23.13;;
2872;SDS011;1444;49.166;7.312;2023-05-21T04:50:05;38.20;;;24.10;;
2872;SDS011;1444;49.166;7.312;2023-05-21T04:52:32;36.90;;;24.40;;
2872;SDS011;1444;49.166;7.312;2023-05-21T04:54:59;33.00;;;23.20;;
2872;SDS011;1444;49.166;7.312;2023-05-21T04:57:26;33.50;;;24.50;;
2872;SDS011;1444;49.166;7.312;2023-05-21T04:59:54;31.17;;;22.73;;
2872;SDS011;1444;49.166;7.312;2023-05-21T05:02:21;28.00;;;21.10;;
2872;SDS011;1444;49.166;7.312;2023-05-21T05:04:50;30.57;;;21.50;;
2872;SDS011;1444;49.166;7.312;2023-05-21T05:07:16;27.20;;;21.03;;
2872;SDS011;1444;49.166;7.312;2023-05-21T05:09:43;31.77;;;21.30;;
2872;SDS011;1444;49.166;7.312;2023-05-21T05:15:08;31.50;;;22.60;;
2872;SDS011;1444;49.166;7.312;2023-05-21T05:17:35;30.13;;;21.53;;
2872;SDS011;1444;49.166;7.312;2023-05-21T05:20:05;31.23;;;23.27;;
2872;SDS011;1444;49.166;7.312;2023-05-21T05:22:33;30.03;;;23.10;;
2872;SDS011;1444;49.166;7.312;2023-05-21T05:25:00;33.00;;;21.93;;
2872;SDS011;1444;49.166;7.312;2023-05-21T05:27:27;30.87;;;22.60;;
2872;SDS011;1444;49.166;7.312;2023-05-21T05:29:54;34.83;;;23.40;;
2872;SDS011;1444;49.166;7.312;2023-05-21T05:32:21;29.93;;;23.47;;
2872;SDS011;1444;49.166;7.312;2023-05-21T05:34:48;31.30;;;23.73;;
2872;SDS011;1444;49.166;7.312;2023-05-21T05:37:16;31.63;;;22.17;;
2872;SDS011;1444;49.166;7.312;2023-05-21T05:39:42;26.70;;;21.97;;
2872;SDS011;1444;49.166;7.312;2023-05-21T05:42:09;29.90;;;21.80;;
2872;SDS011;1444;49.166;7.312;2023-05-21T05:44:36;35.10;;;23.07;;
2872;SDS011;1444;49.166;7.312;2023-05-21T05:47:03;38.40;;;22.80;;
2872;SDS011;1444;49.166;7.312;2023-05-21T05:49:34;32.27;;;23.07;;
2872;SDS011;1444;49.166;7.312;2023-05-21T05:52:01;29.43;;;21.93;;
2872;SDS011;1444;49.166;7.312;2023-05-21T05:54:29;33.70;;;21.40;;
2872;SDS011;1444;49.166;7.312;2023-05-21T05:56:56;27.40;;;21.00;;
2872;SDS011;1444;49.166;7.312;2023-05-21T05:59:23;38.57;;;22.97;;
2872;SDS011;1444;49.166;7.312;2023-05-21T06:01:50;29.70;;;21.10;;
2872;SDS011;1444;49.166;7.312;2023-05-21T06:04:17;25.50;;;20.00;;
2872;SDS011;1444;49.166;7.312;2023-05-21T06:06:43;30.07;;;21.40;;
2872;SDS011;1444;49.166;7.312;2023-05-21T06:09:11;31.60;;;22.03;;
2872;SDS011;1444;49.166;7.312;2023-05-21T06:11:39;28.77;;;22.07;;
2872;SDS011;1444;49.166;7.312;2023-05-21T06:14:06;28.23;;;19.47;;
2872;SDS011;1444;49.166;7.312;2023-05-21T06:16:33;28.20;;;20.67;;
2872;SDS011;1444;49.166;7.312;2023-05-21T06:19:01;28.67;;;21.47;;
2872;SDS011;1444;49.166;7.312;2023-05-21T06:21:27;26.00;;;19.57;;
2872;SDS011;1444;49.166;7.312;2023-05-21T06:23:54;28.57;;;21.47;;
2872;SDS011;1444;49.166;7.312;2023-05-21T06:26:21;32.10;;;20.80;;
2872;SDS011;1444;49.166;7.312;2023-05-21T06:28:49;26.00;;;20.30;;
2872;SDS011;1444;49.166;7.312;2023-05-21T06:31:16;27.20;;;20.07;;
2872;SDS011;1444;49.166;7.312;2023-05-21T06:33:46;36.00;;;21.80;;
2872;SDS011;1444;49.166;7.312;2023-05-21T06:36:14;26.43;;;19.73;;
2872;SDS011;1444;49.166;7.312;2023-05-21T06:38:41;27.70;;;20.17;;
2872;SDS011;1444;49.166;7.312;2023-05-21T06:41:08;25.83;;;19.93;;
2872;SDS011;1444;49.166;7.312;2023-05-21T06:43:35;30.83;;;21.50;;
2872;SDS011;1444;49.166;7.312;2023-05-21T06:46:03;28.03;;;20.93;;
2872;SDS011;1444;49.166;7.312;2023-05-21T06:48:30;26.60;;;18.93;;
2872;SDS011;1444;49.166;7.312;2023-05-21T06:50:56;26.57;;;20.07;;
2872;SDS011;1444;49.166;7.312;2023-05-21T06:53:23;29.37;;;19.00;;
2872;SDS011;1444;49.166;7.312;2023-05-21T06:55:50;29.60;;;20.70;;
2872;SDS011;1444;49.166;7.312;2023-05-21T06:58:17;26.00;;;19.40;;
2872;SDS011;1444;49.166;7.312;2023-05-21T07:00:45;31.03;;;20.50;;
2872;SDS011;1444;49.166;7.312;2023-05-21T07:03:14;28.40;;;19.70;;
2872;SDS011;1444;49.166;7.312;2023-05-21T07:05:41;25.90;;;20.30;;
2872;SDS011;1444;49.166;7.312;2023-05-21T07:08:07;24.70;;;18.93;;
2872;SDS011;1444;49.166;7.312;2023-05-21T07:10:34;24.13;;;18.70;;
2872;SDS011;1444;49.166;7.312;2023-05-21T07:13:01;25.07;;;18.83;;
2872;SDS011;1444;49.166;7.312;2023-05-21T07:15:28;27.80;;;18.63;;
2872;SDS011;1444;49.166;7.312;2023-05-21T07:17:55;26.57;;;20.60;;
2872;SDS011;1444;49.166;7.312;2023-05-21T07:20:23;23.67;;;17.90;;
2872;SDS011;1444;49.166;7.312;2023-05-21T07:22:50;27.50;;;18.70;;
2872;SDS011;1444;49.166;7.312;2023-05-21T07:25:17;31.07;;;20.23;;
2872;SDS011;1444;49.166;7.312;2023-05-21T07:27:44;29.20;;;18.37;;
2872;SDS011;1444;49.166;7.312;2023-05-21T07:30:10;22.10;;;18.10;;
2872;SDS011;1444;49.166;7.312;2023-05-21T07:32:39;19.83;;;15.97;;
2872;SDS011;1444;49.166;7.312;2023-05-21T07:35:06;20.40;;;16.80;;
2872;SDS011;1444;49.166;7.312;2023-05-21T07:37:34;23.57;;;16.93;;
2872;SDS011;1444;49.166;7.312;2023-05-21T07:40:01;26.33;;;18.67;;
2872;SDS011;1444;49.166;7.312;2023-05-21T07:42:30;24.83;;;19.07;;
2872;SDS011;1444;49.166;7.312;2023-05-21T07:44:57;24.87;;;19.43;;
2872;SDS011;1444;49.166;7.312;2023-05-21T07:47:24;24.17;;;19.07;;
2872;SDS011;1444;49.166;7.312;2023-05-21T07:49:51;22.50;;;17.20;;
2872;SDS011;1444;49.166;7.312;2023-05-21T07:52:18;20.53;;;16.17;;
2872;SDS011;1444;49.166;7.312;2023-05-21T07:54:46;19.67;;;16.53;;
2872;SDS011;1444;49.166;7.312;2023-05-21T07:57:13;20.73;;;18.27;;
2872;SDS011;1444;49.166;7.312;2023-05-21T07:59:40;20.93;;;16.73;;
2872;SDS011;1444;49.166;7.312;2023-05-21T08:02:06;21.90;;;18.30;;
2872;SDS011;1444;49.166;7.312;2023-05-21T08:04:33;19.33;;;17.13;;
2872;SDS011;1444;49.166;7.312;2023-05-21T08:07:00;23.53;;;19.13;;
2872;SDS011;1444;49.166;7.312;2023-05-21T08:09:27;23.03;;;18.53;;
2872;SDS011;1444;49.166;7.312;2023-05-21T08:11:57;23.50;;;16.60;;
2872;SDS011;1444;49.166;7.312;2023-05-21T08:14:24;24.60;;;17.60;;
2872;SDS011;1444;49.166;7.312;2023-05-21T08:16:51;24.10;;;18.70;;
2872;SDS011;1444;49.166;7.312;2023-05-21T08:19:18;25.13;;;20.40;;
2872;SDS011;1444;49.166;7.312;2023-05-21T08:21:44;24.50;;;18.40;;
2872;SDS011;1444;49.166;7.312;2023-05-21T08:24:11;20.33;;;17.10;;
2872;SDS011;1444;49.166;7.312;2023-05-21T08:26:38;20.50;;;17.10;;
2872;SDS011;1444;49.166;7.312;2023-05-21T08:29:06;21.50;;;17.53;;
2872;SDS011;1444;49.166;7.312;2023-05-21T08:31:33;18.50;;;15.63;;
2872;SDS011;1444;49.166;7.312;2023-05-21T08:34:00;22.23;;;17.43;;
2872;SDS011;1444;49.166;7.312;2023-05-21T08:36:27;20.33;;;17.60;;
2872;SDS011;1444;49.166;7.312;2023-05-21T08:38:54;21.97;;;17.17;;
2872;SDS011;1444;49.166;7.312;2023-05-21T08:41:20;19.50;;;16.20;;
2872;SDS011;1444;49.166;7.312;2023-05-21T08:43:49;23.27;;;17.47;;
2872;SDS011;1444;49.166;7.312;2023-05-21T08:46:23;25.83;;;17.13;;
2872;SDS011;1444;49.166;7.312;2023-05-21T08:48:50;17.50;;;15.70;;
2872;SDS011;1444;49.166;7.312;2023-05-21T08:51:19;19.00;;;16.10;;
2872;SDS011;1444;49.166;7.312;2023-05-21T08:53:46;19.40;;;16.50;;
2872;SDS011;1444;49.166;7.312;2023-05-21T08:56:15;17.93;;;15.83;;
2872;SDS011;1444;49.166;7.312;2023-05-21T08:58:44;17.77;;;15.87;;
2872;SDS011;1444;49.166;7.312;2023-05-21T09:01:11;22.00;;;17.10;;
2872;SDS011;1444;49.166;7.312;2023-05-21T09:03:40;20.13;;;17.70;;
2872;SDS011;1444;49.166;7.312;2023-05-21T09:06:09;21.50;;;15.93;;
2872;SDS011;1444;49.166;7.312;2023-05-21T09:08:38;19.37;;;15.90;;
2872;SDS011;1444;49.166;7.312;2023-05-21T09:11:08;19.00;;;16.53;;
2872;SDS011;1444;49.166;7.312;2023-05-21T09:13:35;19.53;;;17.43;;
2872;SDS011;1444;49.166;7.312;2023-05-21T09:16:03;23.70;;;17.00;;
2872;SDS011;1444;49.166;7.312;2023-05-21T09:18:31;19.83;;;16.10;;
2872;SDS011;1444;49.166;7.312;2023-05-21T09:21:00;18.33;;;16.10;;
2872;SDS011;1444;49.166;7.312;2023-05-21T09:23:53;20.40;;;16.53;;
2872;SDS011;1444;49.166;7.312;2023-05-21T09:26:21;18.07;;;16.17;;
2872;SDS011;1444;49.166;7.312;2023-05-21T09:28:48;20.17;;;17.77;;
2872;SDS011;1444;49.166;7.312;2023-05-21T09:31:16;21.00;;;16.97;;
2872;SDS011;1444;49.166;7.312;2023-05-21T09:33:44;23.13;;;17.00;;
2872;SDS011;1444;49.166;7.312;2023-05-21T09:36:13;17.97;;;15.97;;
2872;SDS011;1444;49.166;7.312;2023-05-21T09:38:40;18.77;;;16.77;;
2872;SDS011;1444;49.166;7.312;2023-05-21T09:41:07;19.43;;;15.60;;
2872;SDS011;1444;49.166;7.312;2023-05-21T09:43:34;23.47;;;17.87;;
2872;SDS011;1444;49.166;7.312;2023-05-21T09:46:02;19.30;;;15.97;;
2872;SDS011;1444;49.166;7.312;2023-05-21T09:48:35;22.23;;;16.00;;
2872;SDS011;1444;49.166;7.312;2023-05-21T09:51:09;18.17;;;16.20;;
2872;SDS011;1444;49.166;7.312;2023-05-21T09:53:48;17.97;;;14.70;;
2872;SDS011;1444;49.166;7.312;2023-05-21T09:56:17;19.00;;;15.63;;
2872;SDS011;1444;49.166;7.312;2023-05-21T09:58:47;17.90;;;14.80;;
2872;SDS011;1444;49.166;7.312;2023-05-21T10:01:17;16.63;;;14.80;;
2872;SDS011;1444;49.166;7.312;2023-05-21T10:03:45;17.20;;;14.53;;
2872;SDS011;1444;49.166;7.312;2023-05-21T10:06:15;18.10;;;15.83;;
2872;SDS011;1444;49.166;7.312;2023-05-21T10:08:44;15.97;;;14.23;;
2872;SDS011;1444;49.166;7.312;2023-05-21T10:11:14;16.57;;;14.93;;
2872;SDS011;1444;49.166;7.312;2023-05-21T10:13:43;19.57;;;15.40;;
2872;SDS011;1444;49.166;7.312;2023-05-21T10:16:13;16.33;;;14.73;;
2872;SDS011;1444;49.166;7.312;2023-05-21T10:18:41;16.03;;;14.33;;
2872;SDS011;1444;49.166;7.312;2023-05-21T10:21:10;16.23;;;14.50;;
2872;SDS011;1444;49.166;7.312;2023-05-21T10:23:38;22.30;;;16.10;;
2872;SDS011;1444;49.166;7.312;2023-05-21T10:26:06;17.57;;;15.70;;
2872;SDS011;1444;49.166;7.312;2023-05-21T10:28:35;17.90;;;15.77;;
2872;SDS011;1444;49.166;7.312;2023-05-21T10:31:03;15.43;;;13.97;;
2872;SDS011;1444;49.166;7.312;2023-05-21T10:33:30;16.23;;;14.53;;
2872;SDS011;1444;49.166;7.312;2023-05-21T10:35:58;18.70;;;14.63;;
2872;SDS011;1444;49.166;7.312;2023-05-21T10:38:25;18.67;;;15.30;;
2872;SDS011;1444;49.166;7.312;2023-05-21T10:40:54;21.63;;;15.00;;
2872;SDS011;1444;49.166;7.312;2023-05-21T10:43:30;20.30;;;14.90;;
2872;SDS011;1444;49.166;7.312;2023-05-21T10:49:10;16.87;;;15.07;;
2872;SDS011;1444;49.166;7.312;2023-05-21T10:51:52;16.60;;;14.90;;
2872;SDS011;1444;49.166;7.312;2023-05-21T10:54:31;17.10;;;14.83;;
2872;SDS011;1444;49.166;7.312;2023-05-21T10:57:08;15.63;;;14.07;;
2872;SDS011;1444;49.166;7.312;2023-05-21T10:59:47;18.27;;;16.37;;
2872;SDS011;1444;49.166;7.312;2023-05-21T11:02:14;18.90;;;17.00;;
2872;SDS011;1444;49.166;7.312;2023-05-21T11:04:44;17.60;;;15.57;;
2872;SDS011;1444;49.166;7.312;2023-05-21T11:07:22;17.27;;;15.50;;
2872;SDS011;1444;49.166;7.312;2023-05-21T11:10:28;18.27;;;16.07;;
2872;SDS011;1444;49.166;7.312;2023-05-21T11:13:06;15.10;;;13.77;;
2872;SDS011;1444;49.166;7.312;2023-05-21T11:18:59;15.87;;;14.23;;
2872;SDS011;1444;49.166;7.312;2023-05-21T11:21:27;16.67;;;14.97;;
2872;SDS011;1444;49.166;7.312;2023-05-21T11:24:00;19.80;;;17.00;;
2872;SDS011;1444;49.166;7.312;2023-05-21T11:26:29;17.10;;;15.40;;
2872;SDS011;1444;49.166;7.312;2023-05-21T11:29:11;15.93;;;14.23;;
2872;SDS011;1444;49.166;7.312;2023-05-21T11:31:43;17.20;;;15.07;;
2872;SDS011;1444;49.166;7.312;2023-05-21T11:34:12;18.13;;;15.70;;
2872;SDS011;1444;49.166;7.312;2023-05-21T11:36:40;15.30;;;13.33;;
2872;SDS011;1444;49.166;7.312;2023-05-21T11:39:09;15.97;;;14.27;;
2872;SDS011;1444;49.166;7.312;2023-05-21T11:41:49;16.97;;;15.17;;
2872;SDS011;1444;49.166;7.312;2023-05-21T11:44:17;16.63;;;14.33;;
2872;SDS011;1444;49.166;7.312;2023-05-21T11:46:44;18.53;;;14.97;;
2872;SDS011;1444;49.166;7.312;2023-05-21T11:49:13;14.57;;;12.97;;
2872;SDS011;1444;49.166;7.312;2023-05-21T11:51:41;16.50;;;14.60;;
2872;SDS011;1444;49.166;7.312;2023-05-21T11:54:08;15.87;;;14.17;;
2872;SDS011;1444;49.166;7.312;2023-05-21T11:56:36;17.80;;;14.73;;
2872;SDS011;1444;49.166;7.312;2023-05-21T11:59:12;16.10;;;14.40;;
2872;SDS011;1444;49.166;7.312;2023-05-21T12:01:40;19.47;;;15.20;;
2872;SDS011;1444;49.166;7.312;2023-05-21T12:04:08;15.40;;;13.80;;
2872;SDS011;1444;49.166;7.312;2023-05-21T12:06:37;14.70;;;12.70;;
2872;SDS011;1444;49.166;7.312;2023-05-21T12:09:06;18.40;;;14.83;;
2872;SDS011;1444;49.166;7.312;2023-05-21T12:11:34;16.93;;;15.13;;
2872;SDS011;1444;49.166;7.312;2023-05-21T12:14:05;15.70;;;14.10;;
2872;SDS011;1444;49.166;7.312;2023-05-21T12:16:32;15.37;;;12.67;;
2872;SDS011;1444;49.166;7.312;2023-05-21T12:18:59;19.70;;;13.20;;
2872;SDS011;1444;49.166;7.312;2023-05-21T12:21:27;14.57;;;12.83;;
2872;SDS011;1444;49.166;7.312;2023-05-21T12:23:55;15.67;;;12.63;;
2872;SDS011;1444;49.166;7.312;2023-05-21T12:26:22;14.57;;;12.93;;
2872;SDS011;1444;49.166;7.312;2023-05-21T12:28:50;14.40;;;12.90;;
2872;SDS011;1444;49.166;7.312;2023-05-21T12:31:17;16.70;;;14.60;;
2872;SDS011;1444;49.166;7.312;2023-05-21T12:33:46;15.30;;;13.30;;
2872;SDS011;1444;49.166;7.312;2023-05-21T12:36:20;15.33;;;13.20;;
2872;SDS011;1444;49.166;7.312;2023-05-21T12:38:48;14.00;;;12.60;;
2872;SDS011;1444;49.166;7.312;2023-05-21T12:41:17;17.77;;;14.60;;
2872;SDS011;1444;49.166;7.312;2023-05-21T12:43:45;13.93;;;12.53;;
2872;SDS011;1444;49.166;7.312;2023-05-21T12:46:12;15.40;;;13.60;;
2872;SDS011;1444;49.166;7.312;2023-05-21T12:48:46;15.30;;;12.87;;
2872;SDS011;1444;49.166;7.312;2023-05-21T12:51:14;14.70;;;12.80;;
2872;SDS011;1444;49.166;7.312;2023-05-21T12:53:41;15.00;;;13.40;;
2872;SDS011;1444;49.166;7.312;2023-05-21T12:56:08;15.83;;;14.20;;
2872;SDS011;1444;49.166;7.312;2023-05-21T12:58:37;15.17;;;13.60;;
2872;SDS011;1444;49.166;7.312;2023-05-21T13:01:05;15.70;;;14.10;;
2872;SDS011;1444;49.166;7.312;2023-05-21T13:03:33;15.93;;;14.27;;
2872;SDS011;1444;49.166;7.312;2023-05-21T13:06:00;15.27;;;13.77;;
2872;SDS011;1444;49.166;7.312;2023-05-21T13:08:27;15.90;;;12.50;;
2872;SDS011;1444;49.166;7.312;2023-05-21T13:10:54;16.30;;;14.60;;
2872;SDS011;1444;49.166;7.312;2023-05-21T13:13:21;25.33;;;15.47;;
2872;SDS011;1444;49.166;7.312;2023-05-21T13:15:49;14.40;;;12.90;;
2872;SDS011;1444;49.166;7.312;2023-05-21T13:18:16;15.10;;;13.43;;
2872;SDS011;1444;49.166;7.312;2023-05-21T13:20:44;14.70;;;13.30;;
2872;SDS011;1444;49.166;7.312;2023-05-21T13:23:12;13.67;;;12.47;;
2872;SDS011;1444;49.166;7.312;2023-05-21T13:25:40;14.83;;;13.43;;
2872;SDS011;1444;49.166;7.312;2023-05-21T13:28:07;15.00;;;13.50;;
2872;SDS011;1444;49.166;7.312;2023-05-21T13:30:34;15.97;;;14.13;;
2872;SDS011;1444;49.166;7.312;2023-05-21T13:33:04;14.83;;;13.43;;
2872;SDS011;1444;49.166;7.312;2023-05-21T13:35:31;14.60;;;13.10;;
2872;SDS011;1444;49.166;7.312;2023-05-21T13:37:58;15.63;;;13.67;;
2872;SDS011;1444;49.166;7.312;2023-05-21T13:40:25;17.20;;;14.13;;
2872;SDS011;1444;49.166;7.312;2023-05-21T13:42:52;15.03;;;13.63;;
2872;SDS011;1444;49.166;7.312;2023-05-21T13:45:19;15.47;;;13.87;;
2872;SDS011;1444;49.166;7.312;2023-05-21T13:47:49;15.50;;;13.90;;
2872;SDS011;1444;49.166;7.312;2023-05-21T13:50:17;15.87;;;14.00;;
2872;SDS011;1444;49.166;7.312;2023-05-21T13:52:44;15.27;;;13.80;;
2872;SDS011;1444;49.166;7.312;2023-05-21T13:55:11;16.70;;;14.53;;
2872;SDS011;1444;49.166;7.312;2023-05-21T13:57:39;16.20;;;13.13;;
2872;SDS011;1444;49.166;7.312;2023-05-21T14:00:07;14.33;;;12.83;;
2872;SDS011;1444;49.166;7.312;2023-05-21T14:02:36;15.20;;;13.80;;
2872;SDS011;1444;49.166;7.312;2023-05-21T14:05:03;14.13;;;12.73;;
2872;SDS011;1444;49.166;7.312;2023-05-21T14:07:32;13.70;;;12.40;;
2872;SDS011;1444;49.166;7.312;2023-05-21T14:09:59;14.07;;;12.77;;
2872;SDS011;1444;49.166;7.312;2023-05-21T14:12:26;14.03;;;12.63;;
2872;SDS011;1444;49.166;7.312;2023-05-21T14:14:53;14.77;;;13.30;;
2872;SDS011;1444;49.166;7.312;2023-05-21T14:17:20;13.70;;;12.40;;
2872;SDS011;1444;49.166;7.312;2023-05-21T14:19:47;17.53;;;13.37;;
2872;SDS011;1444;49.166;7.312;2023-05-21T14:22:14;14.90;;;13.60;;
2872;SDS011;1444;49.166;7.312;2023-05-21T14:24:42;14.70;;;13.33;;
2872;SDS011;1444;49.166;7.312;2023-05-21T14:27:09;14.80;;;13.30;;
2872;SDS011;1444;49.166;7.312;2023-05-21T14:29:35;14.67;;;13.13;;
2872;SDS011;1444;49.166;7.312;2023-05-21T14:32:02;14.57;;;13.13;;
2872;SDS011;1444;49.166;7.312;2023-05-21T14:34:30;14.47;;;13.07;;
2872;SDS011;1444;49.166;7.312;2023-05-21T14:36:57;14.33;;;12.93;;
2872;SDS011;1444;49.166;7.312;2023-05-21T14:39:23;14.10;;;12.60;;
2872;SDS011;1444;49.166;7.312;2023-05-21T14:41:52;15.43;;;12.33;;
2872;SDS011;1444;49.166;7.312;2023-05-21T14:44:19;14.47;;;13.07;;
2872;SDS011;1444;49.166;7.312;2023-05-21T14:46:46;14.13;;;12.70;;
2872;SDS011;1444;49.166;7.312;2023-05-21T14:49:13;14.50;;;13.00;;
2872;SDS011;1444;49.166;7.312;2023-05-21T14:51:39;13.50;;;11.87;;
2872;SDS011;1444;49.166;7.312;2023-05-21T14:54:07;14.30;;;12.80;;
2872;SDS011;1444;49.166;7.312;2023-05-21T14:56:34;15.47;;;12.30;;
2872;SDS011;1444;49.166;7.312;2023-05-21T14:59:02;13.57;;;12.27;;
2872;SDS011;1444;49.166;7.312;2023-05-21T15:01:29;16.33;;;12.00;;
2872;SDS011;1444;49.166;7.312;2023-05-21T15:03:56;14.67;;;12.80;;